Sct Zurich — V7NG2 — position and weather

sailwx.info

Track history (hours):
 
Tides and Currents Weather Stations Pressure Air Temp Water Temp Dewpoint Dewpoint Depression Visibility Wind Speed Wind Dir Waves Ship Positions

Sct Zurich

Last reported at 2014-Sep-17 12:13 UTC. Time now 2014-Sep-22 20:16 UTC.
Position N 32°04' W 080°58'.

Length 294 m; draft 10.4 m.

Type: Ship (hazmat cat D). MMSI: 538002956.

Date/timePositionNaut miles runAvg speedWind from/ knotsBaromVisibWave heightAir tempDewpointWater temp
2014-Sep-17 12:13N 32°04' W 080°58'7 8.5
2014-Sep-17 11:22N 32°05' W 081°06'4 2.9
2014-Sep-17 10:08N 32°08' W 081°09'0 0.0
2014-Sep-17 09:30N 32°08' W 081°09'0 0.0
2014-Sep-17 08:32N 32°08' W 081°09'0 0.0
2014-Sep-17 07:32N 32°08' W 081°09'0 0.0
2014-Sep-17 06:29N 32°08' W 081°09'0 0.0
2014-Sep-17 05:29N 32°08' W 081°09'0 0.0
2014-Sep-17 04:32N 32°08' W 081°09'0 0.0
2014-Sep-17 03:29N 32°08' W 081°09'0 0.0
2014-Sep-17 02:32N 32°08' W 081°09'0 0.0
2014-Sep-17 01:29N 32°08' W 081°09'0 0.0
2014-Sep-17 00:29N 32°08' W 081°09'0 0.0
2014-Sep-16 23:32N 32°08' W 081°09'0 0.0
2014-Sep-16 22:32N 32°08' W 081°09'0 0.1
2014-Sep-16 19:33N 32°08' W 081°08'5 4.5
2014-Sep-16 18:30N 32°05' W 081°04'6 6.4
2014-Sep-16 17:33N 32°04' W 080°57'382 8.9
2014-Sep-14 22:33N 36°51' W 075°50'1515.5
2014-Sep-14 21:33N 36°59' W 076°07'1111.0
2014-Sep-14 20:33N 36°55' W 076°20'3 1.9
2014-Sep-14 19:08N 36°53' W 076°21'0 0.0
2014-Sep-14 18:11N 36°53' W 076°21'0 0.0
2014-Sep-14 17:20N 36°53' W 076°21'0 0.0
2014-Sep-14 16:29N 36°53' W 076°21'0 0.0
2014-Sep-14 14:11N 36°53' W 076°21'0 0.0
2014-Sep-14 10:29N 36°53' W 076°21'0 0.0
2014-Sep-14 09:14N 36°53' W 076°21'0 0.0
2014-Sep-14 08:14N 36°53' W 076°21'4 4.3
2014-Sep-14 07:24N 36°56' W 076°20'1011.7
2014-Sep-14 06:33N 36°59' W 076°08'1312.0
2014-Sep-14 05:29N 36°54' W 075°54'1011.1
2014-Sep-14 04:33N 36°49' W 075°42'200 4.4
2014-Sep-12 07:33N 39°49' W 073°51'1514.7
2014-Sep-12 06:33N 40°04' W 073°51'1714.7
2014-Sep-12 05:24N 40°21' W 073°49'911.2
2014-Sep-12 04:34N 40°29' W 073°54'1312.8
2014-Sep-12 03:33N 40°39' W 074°05'4 0.4
2014-Sep-11 18:31N 40°41' W 074°09'0 0.0
2014-Sep-11 17:31N 40°41' W 074°09'0 0.0
2014-Sep-11 16:28N 40°41' W 074°09'0 0.0
2014-Sep-11 15:25N 40°41' W 074°09'0 0.0
2014-Sep-11 14:31N 40°41' W 074°09'0 0.0
2014-Sep-11 13:31N 40°41' W 074°09'0 0.0
2014-Sep-11 12:31N 40°41' W 074°09'0 0.0
2014-Sep-11 11:31N 40°41' W 074°09'0 0.0
2014-Sep-11 10:28N 40°41' W 074°09'0 0.0
2014-Sep-11 09:31N 40°41' W 074°09'0 0.0
2014-Sep-11 08:31N 40°41' W 074°09'0 0.0
2014-Sep-11 07:31N 40°41' W 074°09'0 0.0
2014-Sep-11 06:31N 40°41' W 074°09'0 0.0
2014-Sep-11 05:31N 40°41' W 074°09'0 0.0
2014-Sep-11 04:31N 40°41' W 074°09'0 0.0
2014-Sep-11 03:22N 40°41' W 074°09'0 0.0
2014-Sep-11 02:31N 40°41' W 074°09'0 0.0
2014-Sep-11 01:31N 40°41' W 074°09'1 0.9
2014-Sep-11 00:33N 40°40' W 074°08'5 5.1
2014-Sep-10 23:33N 40°37' W 074°03'1 1.4
2014-Sep-10 22:32N 40°36' W 074°02'0 0.2
2014-Sep-10 21:29N 40°36' W 074°02'0 0.1
2014-Sep-10 20:32N 40°36' W 074°02'0 0.0
2014-Sep-10 19:32N 40°36' W 074°02'0 0.0
2014-Sep-10 18:32N 40°36' W 074°02'0 0.0
2014-Sep-10 17:32N 40°36' W 074°02'0 0.1
2014-Sep-10 16:33N 40°36' W 074°02'8 8.2
2014-Sep-10 15:33N 40°29' W 073°55'8 7.5
2014-Sep-10 14:33N 40°30' W 073°45'0 0.3
2014-Sep-10 13:32N 40°30' W 073°46'0 0.0
2014-Sep-10 12:32N 40°30' W 073°46'0 0.0
2014-Sep-10 11:32N 40°30' W 073°46'0 0.0
2014-Sep-10 10:32N 40°30' W 073°46'0 0.1
2014-Sep-10 09:32N 40°30' W 073°46'0 0.1
2014-Sep-10 08:32N 40°30' W 073°46'0 0.0
2014-Sep-10 07:29N 40°30' W 073°46'0 0.0
2014-Sep-10 06:32N 40°30' W 073°46'0 0.0
2014-Sep-10 05:32N 40°30' W 073°46'0 0.0
2014-Sep-10 04:29N 40°30' W 073°46'0 0.0
2014-Sep-10 03:32N 40°30' W 073°46'0 0.0
2014-Sep-10 02:32N 40°30' W 073°46'0 0.0
2014-Sep-10 01:29N 40°30' W 073°46'0 0.0
2014-Sep-10 00:29N 40°30' W 073°46'0 0.0
2014-Sep-09 23:32N 40°30' W 073°46'0 0.0
2014-Sep-09 22:32N 40°30' W 073°46'0 0.0
2014-Sep-09 21:32N 40°30' W 073°46'0 0.0
2014-Sep-09 20:32N 40°30' W 073°46'0 0.0
2014-Sep-09 19:32N 40°30' W 073°46'0 0.0
2014-Sep-09 18:33N 40°30' W 073°46'0 0.0
2014-Sep-09 17:33N 40°30' W 073°46'0 0.0
2014-Sep-09 16:33N 40°30' W 073°46'0 0.1
2014-Sep-09 15:33N 40°30' W 073°46'6 5.7
2014-Sep-09 14:34N 40°28' W 073°39'1515.5
2014-Sep-09 13:34N 40°29' W 073°18'1515.4
2014-Sep-09 12:33N 40°30' W 072°58'1212.3
2014-Sep-09 11:33N 40°31' W 072°42'1514.7
2014-Sep-09 10:34N 40°31' W 072°23'1514.6
2014-Sep-09 09:34N 40°31' W 072°03'1514.8
2014-Sep-09 08:34N 40°32' W 071°44'1515.2
2014-Sep-09 07:33N 40°32' W 071°24'1515.3
2014-Sep-09 06:34N 40°32' W 071°04'1515.3
2014-Sep-09 05:33N 40°33' W 070°44'1515.1
2014-Sep-09 04:34N 40°33' W 070°24'1514.8
2014-Sep-09 03:33N 40°33' W 070°04'1514.5
2014-Sep-09 02:33N 40°34' W 069°45'1414.2
2014-Sep-09 01:33N 40°34' W 069°27'1414.3
2014-Sep-09 00:33N 40°35' W 069°08'1514.8
2014-Sep-08 23:34N 40°35' W 068°48'1515.2
2014-Sep-08 22:34N 40°34' W 068°28'1715.5
2014-Sep-08 21:29N 40°33' W 068°07'  
Track history (hours):
 
Tides and Currents Weather Stations Pressure Air Temp Water Temp Dewpoint Dewpoint Depression Visibility Wind Speed Wind Dir Waves Ship Positions

Sct Zurich

Last reported at 2014-Sep-17 12:13 UTC. Time now 2014-Sep-22 20:16 UTC.
Position N 32°04' W 080°58'.

Length 294 m; draft 10.4 m.

Type: Ship (hazmat cat D). MMSI: 538002956.

Date/timePositionNaut miles runAvg speedWind from/ knotsBaromVisibWave heightAir tempDewpointWater temp
2014-Sep-17 12:13N 32°04' W 080°58'7 8.5
2014-Sep-17 11:22N 32°05' W 081°06'4 2.9
2014-Sep-17 10:08N 32°08' W 081°09'0 0.0
2014-Sep-17 09:30N 32°08' W 081°09'0 0.0
2014-Sep-17 08:32N 32°08' W 081°09'0 0.0
2014-Sep-17 07:32N 32°08' W 081°09'0 0.0
2014-Sep-17 06:29N 32°08' W 081°09'0 0.0
2014-Sep-17 05:29N 32°08' W 081°09'0 0.0
2014-Sep-17 04:32N 32°08' W 081°09'0 0.0
2014-Sep-17 03:29N 32°08' W 081°09'0 0.0
2014-Sep-17 02:32N 32°08' W 081°09'0 0.0
2014-Sep-17 01:29N 32°08' W 081°09'0 0.0
2014-Sep-17 00:29N 32°08' W 081°09'0 0.0
2014-Sep-16 23:32N 32°08' W 081°09'0 0.0
2014-Sep-16 22:32N 32°08' W 081°09'0 0.1
2014-Sep-16 19:33N 32°08' W 081°08'5 4.5
2014-Sep-16 18:30N 32°05' W 081°04'6 6.4
2014-Sep-16 17:33N 32°04' W 080°57'382 8.9
2014-Sep-14 22:33N 36°51' W 075°50'1515.5
2014-Sep-14 21:33N 36°59' W 076°07'1111.0
2014-Sep-14 20:33N 36°55' W 076°20'3 1.9
2014-Sep-14 19:08N 36°53' W 076°21'0 0.0
2014-Sep-14 18:11N 36°53' W 076°21'0 0.0
2014-Sep-14 17:20N 36°53' W 076°21'0 0.0
2014-Sep-14 16:29N 36°53' W 076°21'0 0.0
2014-Sep-14 14:11N 36°53' W 076°21'0 0.0
2014-Sep-14 10:29N 36°53' W 076°21'0 0.0
2014-Sep-14 09:14N 36°53' W 076°21'0 0.0
2014-Sep-14 08:14N 36°53' W 076°21'4 4.3
2014-Sep-14 07:24N 36°56' W 076°20'1011.7
2014-Sep-14 06:33N 36°59' W 076°08'1312.0
2014-Sep-14 05:29N 36°54' W 075°54'1011.1
2014-Sep-14 04:33N 36°49' W 075°42'200 4.4
2014-Sep-12 07:33N 39°49' W 073°51'1514.7
2014-Sep-12 06:33N 40°04' W 073°51'1714.7
2014-Sep-12 05:24N 40°21' W 073°49'911.2
2014-Sep-12 04:34N 40°29' W 073°54'1312.8
2014-Sep-12 03:33N 40°39' W 074°05'4 0.4
2014-Sep-11 18:31N 40°41' W 074°09'0 0.0
2014-Sep-11 17:31N 40°41' W 074°09'0 0.0
2014-Sep-11 16:28N 40°41' W 074°09'0 0.0
2014-Sep-11 15:25N 40°41' W 074°09'0 0.0
2014-Sep-11 14:31N 40°41' W 074°09'0 0.0
2014-Sep-11 13:31N 40°41' W 074°09'0 0.0
2014-Sep-11 12:31N 40°41' W 074°09'0 0.0
2014-Sep-11 11:31N 40°41' W 074°09'0 0.0
2014-Sep-11 10:28N 40°41' W 074°09'0 0.0
2014-Sep-11 09:31N 40°41' W 074°09'0 0.0
2014-Sep-11 08:31N 40°41' W 074°09'0 0.0
2014-Sep-11 07:31N 40°41' W 074°09'0 0.0
2014-Sep-11 06:31N 40°41' W 074°09'0 0.0
2014-Sep-11 05:31N 40°41' W 074°09'0 0.0
2014-Sep-11 04:31N 40°41' W 074°09'0 0.0
2014-Sep-11 03:22N 40°41' W 074°09'0 0.0
2014-Sep-11 02:31N 40°41' W 074°09'0 0.0
2014-Sep-11 01:31N 40°41' W 074°09'1 0.9
2014-Sep-11 00:33N 40°40' W 074°08'5 5.1
2014-Sep-10 23:33N 40°37' W 074°03'1 1.4
2014-Sep-10 22:32N 40°36' W 074°02'0 0.2
2014-Sep-10 21:29N 40°36' W 074°02'0 0.1
2014-Sep-10 20:32N 40°36' W 074°02'0 0.0
2014-Sep-10 19:32N 40°36' W 074°02'0 0.0
2014-Sep-10 18:32N 40°36' W 074°02'0 0.0
2014-Sep-10 17:32N 40°36' W 074°02'0 0.1
2014-Sep-10 16:33N 40°36' W 074°02'8 8.2
2014-Sep-10 15:33N 40°29' W 073°55'8 7.5
2014-Sep-10 14:33N 40°30' W 073°45'0 0.3
2014-Sep-10 13:32N 40°30' W 073°46'0 0.0
2014-Sep-10 12:32N 40°30' W 073°46'0 0.0
2014-Sep-10 11:32N 40°30' W 073°46'0 0.0
2014-Sep-10 10:32N 40°30' W 073°46'0 0.1
2014-Sep-10 09:32N 40°30' W 073°46'0 0.1
2014-Sep-10 08:32N 40°30' W 073°46'0 0.0
2014-Sep-10 07:29N 40°30' W 073°46'0 0.0
2014-Sep-10 06:32N 40°30' W 073°46'0 0.0
2014-Sep-10 05:32N 40°30' W 073°46'0 0.0
2014-Sep-10 04:29N 40°30' W 073°46'0 0.0
2014-Sep-10 03:32N 40°30' W 073°46'0 0.0
2014-Sep-10 02:32N 40°30' W 073°46'0 0.0
2014-Sep-10 01:29N 40°30' W 073°46'0 0.0
2014-Sep-10 00:29N 40°30' W 073°46'0 0.0
2014-Sep-09 23:32N 40°30' W 073°46'0 0.0
2014-Sep-09 22:32N 40°30' W 073°46'0 0.0
2014-Sep-09 21:32N 40°30' W 073°46'0 0.0
2014-Sep-09 20:32N 40°30' W 073°46'0 0.0
2014-Sep-09 19:32N 40°30' W 073°46'0 0.0
2014-Sep-09 18:33N 40°30' W 073°46'0 0.0
2014-Sep-09 17:33N 40°30' W 073°46'0 0.0
2014-Sep-09 16:33N 40°30' W 073°46'0 0.1
2014-Sep-09 15:33N 40°30' W 073°46'6 5.7
2014-Sep-09 14:34N 40°28' W 073°39'1515.5
2014-Sep-09 13:34N 40°29' W 073°18'1515.4
2014-Sep-09 12:33N 40°30' W 072°58'1212.3
2014-Sep-09 11:33N 40°31' W 072°42'1514.7
2014-Sep-09 10:34N 40°31' W 072°23'1514.6
2014-Sep-09 09:34N 40°31' W 072°03'1514.8
2014-Sep-09 08:34N 40°32' W 071°44'1515.2
2014-Sep-09 07:33N 40°32' W 071°24'1515.3
2014-Sep-09 06:34N 40°32' W 071°04'1515.3
2014-Sep-09 05:33N 40°33' W 070°44'1515.1
2014-Sep-09 04:34N 40°33' W 070°24'1514.8
2014-Sep-09 03:33N 40°33' W 070°04'1514.5
2014-Sep-09 02:33N 40°34' W 069°45'1414.2
2014-Sep-09 01:33N 40°34' W 069°27'1414.3
2014-Sep-09 00:33N 40°35' W 069°08'1514.8
2014-Sep-08 23:34N 40°35' W 068°48'1515.2
2014-Sep-08 22:34N 40°34' W 068°28'1715.5
2014-Sep-08 21:29N 40°33' W 068°07'  

Dump ship's entire track history